3AR9 weather

Quinn Field
Paragould, Arkansas, United States

Public forecast

Using degrees Fahrenheit for public forecast. Weather courtesy of forecast.io.

Closest aviation weather report (METAR) to Quinn Field

Closest report is Kennett Memorial Airport, 18.8 nm (34.8 km) NE. Retrieved 2020/06/02 10:55 UTC (8 minutes ago):

KTKX 021055Z AUTO 00000KT 10SM CLR 15/14 A3010 RMK AO2

Closest aviation forecast (TAF) to Quinn Field

Closest forecast is Jonesboro Municipal Airport, 19.3 nm (35.7 km) SW. Retrieved 2020/06/02 06:22 UTC (5 hours ago):

TAF KJBR 020520Z 0206/0306 00000KT P6SM FEW120 FEW250 FM021700 23005KT P6SM FEW100 FEW250 FM030000 VRB03KT P6SM FEW250 AMD NOT SKED